Terminal Aerodrome Forecast
Issued by NWS Twin Cities, MN

Home | Current Version | Previous Version | Text Only | Print | Product List | Glossary On
Versions: 1 2 3 4 5 6 7 8 9 10 11 12 13 14 15 16
141
FTUS43 KMPX 290848 AAA
TAFSTC
TAF AMD
KSTC 290848Z 2909/3006 26004KT P6SM BKN045 OVC080
     FM291000 28006KT P6SM OVC025
     FM291200 29008KT 6SM BR BKN009 OVC015
     FM291400 29009KT P6SM BKN025
     FM291800 27010G17KT P6SM SCT030 SCT150
     FM300200 29006KT P6SM SKC=

USA.gov is the U.S. government's official web portal to all federal, state and local government web resources and services.